sensor_id;sensor_type;location;lat;lon;timestamp;P1;durP1;ratioP1;P2;durP2;ratioP2
80384;SDS011;69702;44.618;33.604;2024-01-27T00:02:12;11.43;;;6.78;;
80384;SDS011;69702;44.618;33.604;2024-01-27T00:04:38;12.23;;;6.68;;
80384;SDS011;69702;44.618;33.604;2024-01-27T00:07:04;11.30;;;6.32;;
80384;SDS011;69702;44.618;33.604;2024-01-27T00:09:30;12.07;;;6.90;;
80384;SDS011;69702;44.618;33.604;2024-01-27T00:11:56;12.98;;;6.38;;
80384;SDS011;69702;44.618;33.604;2024-01-27T00:14:23;10.73;;;6.63;;
80384;SDS011;69702;44.618;33.604;2024-01-27T00:16:49;12.68;;;6.22;;
80384;SDS011;69702;44.618;33.604;2024-01-27T00:19:15;10.90;;;6.60;;
80384;SDS011;69702;44.618;33.604;2024-01-27T00:21:41;10.10;;;6.13;;
80384;SDS011;69702;44.618;33.604;2024-01-27T00:24:07;12.45;;;6.80;;
80384;SDS011;69702;44.618;33.604;2024-01-27T00:26:33;11.68;;;6.90;;
80384;SDS011;69702;44.618;33.604;2024-01-27T00:28:59;11.35;;;6.80;;
80384;SDS011;69702;44.618;33.604;2024-01-27T00:31:25;13.80;;;7.13;;
80384;SDS011;69702;44.618;33.604;2024-01-27T00:33:51;13.40;;;7.73;;
80384;SDS011;69702;44.618;33.604;2024-01-27T00:36:18;13.43;;;7.38;;
80384;SDS011;69702;44.618;33.604;2024-01-27T00:38:45;13.55;;;8.73;;
80384;SDS011;69702;44.618;33.604;2024-01-27T00:41:18;12.30;;;8.02;;
80384;SDS011;69702;44.618;33.604;2024-01-27T00:43:45;15.43;;;8.30;;
80384;SDS011;69702;44.618;33.604;2024-01-27T00:46:11;13.43;;;7.90;;
80384;SDS011;69702;44.618;33.604;2024-01-27T00:48:37;11.13;;;7.13;;
80384;SDS011;69702;44.618;33.604;2024-01-27T00:51:03;13.65;;;7.80;;
80384;SDS011;69702;44.618;33.604;2024-01-27T00:53:29;14.88;;;9.15;;
80384;SDS011;69702;44.618;33.604;2024-01-27T00:55:55;14.98;;;8.85;;
80384;SDS011;69702;44.618;33.604;2024-01-27T00:58:21;14.80;;;8.90;;
80384;SDS011;69702;44.618;33.604;2024-01-27T01:00:47;12.90;;;7.93;;
80384;SDS011;69702;44.618;33.604;2024-01-27T01:03:14;12.82;;;8.00;;
80384;SDS011;69702;44.618;33.604;2024-01-27T01:05:40;11.07;;;6.88;;
80384;SDS011;69702;44.618;33.604;2024-01-27T01:08:06;11.57;;;6.90;;
80384;SDS011;69702;44.618;33.604;2024-01-27T01:10:32;11.35;;;6.53;;
80384;SDS011;69702;44.618;33.604;2024-01-27T01:12:58;8.95;;;5.82;;
80384;SDS011;69702;44.618;33.604;2024-01-27T01:15:24;9.95;;;5.57;;
80384;SDS011;69702;44.618;33.604;2024-01-27T01:17:50;10.88;;;6.10;;
80384;SDS011;69702;44.618;33.604;2024-01-27T01:20:16;9.40;;;5.63;;
80384;SDS011;69702;44.618;33.604;2024-01-27T01:22:42;11.18;;;5.80;;
80384;SDS011;69702;44.618;33.604;2024-01-27T01:25:09;12.43;;;6.78;;
80384;SDS011;69702;44.618;33.604;2024-01-27T01:27:35;11.38;;;6.70;;
80384;SDS011;69702;44.618;33.604;2024-01-27T01:30:01;12.40;;;8.18;;
80384;SDS011;69702;44.618;33.604;2024-01-27T01:32:30;10.60;;;6.60;;
80384;SDS011;69702;44.618;33.604;2024-01-27T01:34:56;10.38;;;6.50;;
80384;SDS011;69702;44.618;33.604;2024-01-27T01:37:22;10.75;;;6.88;;
80384;SDS011;69702;44.618;33.604;2024-01-27T01:39:48;11.98;;;7.20;;
80384;SDS011;69702;44.618;33.604;2024-01-27T01:42:14;11.30;;;6.10;;
80384;SDS011;69702;44.618;33.604;2024-01-27T01:44:40;10.95;;;7.00;;
80384;SDS011;69702;44.618;33.604;2024-01-27T01:47:06;10.95;;;6.63;;
80384;SDS011;69702;44.618;33.604;2024-01-27T01:49:33;11.10;;;6.18;;
80384;SDS011;69702;44.618;33.604;2024-01-27T01:52:00;11.25;;;6.43;;
80384;SDS011;69702;44.618;33.604;2024-01-27T01:54:27;9.83;;;6.43;;
80384;SDS011;69702;44.618;33.604;2024-01-27T01:56:55;9.65;;;6.05;;
80384;SDS011;69702;44.618;33.604;2024-01-27T01:59:21;9.48;;;6.13;;
80384;SDS011;69702;44.618;33.604;2024-01-27T02:01:47;10.95;;;6.63;;
80384;SDS011;69702;44.618;33.604;2024-01-27T02:04:13;9.63;;;5.70;;
80384;SDS011;69702;44.618;33.604;2024-01-27T02:06:39;11.00;;;7.17;;
80384;SDS011;69702;44.618;33.604;2024-01-27T02:09:05;13.25;;;8.32;;
80384;SDS011;69702;44.618;33.604;2024-01-27T02:11:31;13.60;;;7.90;;
80384;SDS011;69702;44.618;33.604;2024-01-27T02:13:57;10.55;;;8.07;;
80384;SDS011;69702;44.618;33.604;2024-01-27T02:16:24;9.55;;;6.82;;
80384;SDS011;69702;44.618;33.604;2024-01-27T02:18:50;11.43;;;7.77;;
80384;SDS011;69702;44.618;33.604;2024-01-27T02:21:16;7.53;;;5.07;;
80384;SDS011;69702;44.618;33.604;2024-01-27T02:23:42;7.75;;;5.50;;
80384;SDS011;69702;44.618;33.604;2024-01-27T02:26:08;6.65;;;4.15;;
80384;SDS011;69702;44.618;33.604;2024-01-27T02:28:34;7.00;;;4.53;;
80384;SDS011;69702;44.618;33.604;2024-01-27T02:31:01;7.17;;;5.10;;
80384;SDS011;69702;44.618;33.604;2024-01-27T02:33:27;8.70;;;5.10;;
80384;SDS011;69702;44.618;33.604;2024-01-27T02:35:53;8.48;;;5.50;;
80384;SDS011;69702;44.618;33.604;2024-01-27T02:38:20;9.27;;;5.75;;
80384;SDS011;69702;44.618;33.604;2024-01-27T02:40:46;8.88;;;5.40;;
80384;SDS011;69702;44.618;33.604;2024-01-27T02:43:13;10.67;;;5.97;;
80384;SDS011;69702;44.618;33.604;2024-01-27T02:45:39;8.57;;;5.28;;
80384;SDS011;69702;44.618;33.604;2024-01-27T02:48:05;7.93;;;4.90;;
80384;SDS011;69702;44.618;33.604;2024-01-27T02:50:31;8.35;;;5.63;;
80384;SDS011;69702;44.618;33.604;2024-01-27T02:52:57;7.22;;;4.97;;
80384;SDS011;69702;44.618;33.604;2024-01-27T02:55:23;8.67;;;5.30;;
80384;SDS011;69702;44.618;33.604;2024-01-27T02:57:49;7.55;;;5.47;;
80384;SDS011;69702;44.618;33.604;2024-01-27T03:00:15;8.48;;;5.40;;
80384;SDS011;69702;44.618;33.604;2024-01-27T03:02:43;8.10;;;5.30;;
80384;SDS011;69702;44.618;33.604;2024-01-27T03:05:09;8.60;;;5.72;;
80384;SDS011;69702;44.618;33.604;2024-01-27T03:07:35;6.97;;;4.67;;
80384;SDS011;69702;44.618;33.604;2024-01-27T03:10:01;8.25;;;4.63;;
80384;SDS011;69702;44.618;33.604;2024-01-27T03:12:29;7.13;;;4.25;;
80384;SDS011;69702;44.618;33.604;2024-01-27T03:14:55;7.57;;;5.43;;
80384;SDS011;69702;44.618;33.604;2024-01-27T03:17:21;6.45;;;4.18;;
80384;SDS011;69702;44.618;33.604;2024-01-27T03:19:47;7.00;;;3.73;;
80384;SDS011;69702;44.618;33.604;2024-01-27T03:22:13;6.32;;;3.67;;
80384;SDS011;69702;44.618;33.604;2024-01-27T03:24:40;5.03;;;3.40;;
80384;SDS011;69702;44.618;33.604;2024-01-27T03:27:07;5.18;;;3.33;;
80384;SDS011;69702;44.618;33.604;2024-01-27T03:29:33;5.00;;;3.72;;
80384;SDS011;69702;44.618;33.604;2024-01-27T03:31:59;5.77;;;3.20;;
80384;SDS011;69702;44.618;33.604;2024-01-27T03:34:25;5.72;;;3.65;;
80384;SDS011;69702;44.618;33.604;2024-01-27T03:36:52;5.60;;;3.55;;
80384;SDS011;69702;44.618;33.604;2024-01-27T03:39:18;5.43;;;3.30;;
80384;SDS011;69702;44.618;33.604;2024-01-27T03:41:44;6.18;;;3.67;;
80384;SDS011;69702;44.618;33.604;2024-01-27T03:44:11;5.50;;;3.43;;
80384;SDS011;69702;44.618;33.604;2024-01-27T03:46:37;6.40;;;3.90;;
80384;SDS011;69702;44.618;33.604;2024-01-27T03:49:04;6.47;;;3.72;;
80384;SDS011;69702;44.618;33.604;2024-01-27T03:51:30;5.70;;;3.65;;
80384;SDS011;69702;44.618;33.604;2024-01-27T03:53:56;5.28;;;3.67;;
80384;SDS011;69702;44.618;33.604;2024-01-27T03:56:23;5.90;;;4.10;;
80384;SDS011;69702;44.618;33.604;2024-01-27T03:58:49;5.65;;;3.40;;
80384;SDS011;69702;44.618;33.604;2024-01-27T04:01:15;5.47;;;3.20;;
80384;SDS011;69702;44.618;33.604;2024-01-27T04:03:41;6.78;;;3.75;;
80384;SDS011;69702;44.618;33.604;2024-01-27T04:06:07;6.22;;;3.90;;
80384;SDS011;69702;44.618;33.604;2024-01-27T04:08:33;6.93;;;4.30;;
80384;SDS011;69702;44.618;33.604;2024-01-27T04:10:59;7.20;;;4.50;;
80384;SDS011;69702;44.618;33.604;2024-01-27T04:13:25;7.22;;;4.07;;
80384;SDS011;69702;44.618;33.604;2024-01-27T04:15:52;7.95;;;4.53;;
80384;SDS011;69702;44.618;33.604;2024-01-27T04:18:19;7.20;;;4.15;;
80384;SDS011;69702;44.618;33.604;2024-01-27T04:20:45;5.93;;;3.40;;
80384;SDS011;69702;44.618;33.604;2024-01-27T04:23:11;5.57;;;3.33;;
80384;SDS011;69702;44.618;33.604;2024-01-27T04:25:38;7.93;;;4.88;;
80384;SDS011;69702;44.618;33.604;2024-01-27T04:28:04;7.28;;;4.07;;
80384;SDS011;69702;44.618;33.604;2024-01-27T04:30:31;8.10;;;4.82;;
80384;SDS011;69702;44.618;33.604;2024-01-27T04:32:57;6.20;;;3.80;;
80384;SDS011;69702;44.618;33.604;2024-01-27T04:35:23;7.03;;;4.30;;
80384;SDS011;69702;44.618;33.604;2024-01-27T04:37:49;7.65;;;4.70;;
80384;SDS011;69702;44.618;33.604;2024-01-27T04:40:15;7.28;;;4.60;;
80384;SDS011;69702;44.618;33.604;2024-01-27T04:42:41;7.60;;;5.53;;
80384;SDS011;69702;44.618;33.604;2024-01-27T04:45:08;6.15;;;4.65;;
80384;SDS011;69702;44.618;33.604;2024-01-27T04:47:34;5.90;;;4.10;;
80384;SDS011;69702;44.618;33.604;2024-01-27T04:50:01;6.90;;;4.50;;
80384;SDS011;69702;44.618;33.604;2024-01-27T04:52:31;6.32;;;4.20;;
80384;SDS011;69702;44.618;33.604;2024-01-27T04:54:57;5.97;;;4.37;;
80384;SDS011;69702;44.618;33.604;2024-01-27T04:57:24;5.88;;;3.60;;
80384;SDS011;69702;44.618;33.604;2024-01-27T04:59:50;8.07;;;4.72;;
80384;SDS011;69702;44.618;33.604;2024-01-27T05:02:17;5.57;;;3.55;;
80384;SDS011;69702;44.618;33.604;2024-01-27T05:04:43;6.13;;;4.38;;
80384;SDS011;69702;44.618;33.604;2024-01-27T05:07:09;6.13;;;3.63;;
80384;SDS011;69702;44.618;33.604;2024-01-27T05:09:35;6.22;;;4.50;;
80384;SDS011;69702;44.618;33.604;2024-01-27T05:12:02;6.88;;;4.25;;
80384;SDS011;69702;44.618;33.604;2024-01-27T05:14:28;7.65;;;5.20;;
80384;SDS011;69702;44.618;33.604;2024-01-27T05:16:54;7.78;;;4.57;;
80384;SDS011;69702;44.618;33.604;2024-01-27T05:19:20;6.77;;;4.03;;
80384;SDS011;69702;44.618;33.604;2024-01-27T05:21:47;7.78;;;4.40;;
80384;SDS011;69702;44.618;33.604;2024-01-27T05:24:13;6.38;;;4.07;;
80384;SDS011;69702;44.618;33.604;2024-01-27T05:26:40;6.18;;;3.95;;
80384;SDS011;69702;44.618;33.604;2024-01-27T05:29:06;6.25;;;4.07;;
80384;SDS011;69702;44.618;33.604;2024-01-27T05:31:34;6.80;;;4.30;;
80384;SDS011;69702;44.618;33.604;2024-01-27T05:34:01;6.90;;;4.60;;
80384;SDS011;69702;44.618;33.604;2024-01-27T05:36:27;8.32;;;6.03;;
80384;SDS011;69702;44.618;33.604;2024-01-27T05:38:53;10.68;;;6.43;;
80384;SDS011;69702;44.618;33.604;2024-01-27T05:41:19;8.45;;;5.65;;
80384;SDS011;69702;44.618;33.604;2024-01-27T05:43:45;8.10;;;4.80;;
80384;SDS011;69702;44.618;33.604;2024-01-27T05:46:11;8.38;;;5.25;;
80384;SDS011;69702;44.618;33.604;2024-01-27T05:48:38;12.02;;;6.82;;
80384;SDS011;69702;44.618;33.604;2024-01-27T05:51:04;9.60;;;6.05;;
80384;SDS011;69702;44.618;33.604;2024-01-27T05:53:30;10.70;;;7.25;;
80384;SDS011;69702;44.618;33.604;2024-01-27T05:55:56;12.03;;;7.47;;
80384;SDS011;69702;44.618;33.604;2024-01-27T05:58:25;15.02;;;7.30;;
80384;SDS011;69702;44.618;33.604;2024-01-27T06:00:51;15.85;;;8.30;;
80384;SDS011;69702;44.618;33.604;2024-01-27T06:03:17;12.05;;;6.50;;
80384;SDS011;69702;44.618;33.604;2024-01-27T06:05:43;11.75;;;6.95;;
80384;SDS011;69702;44.618;33.604;2024-01-27T06:08:10;11.47;;;6.73;;
80384;SDS011;69702;44.618;33.604;2024-01-27T06:10:36;10.88;;;7.38;;
80384;SDS011;69702;44.618;33.604;2024-01-27T06:13:03;11.48;;;6.90;;
80384;SDS011;69702;44.618;33.604;2024-01-27T06:15:30;11.77;;;8.43;;
80384;SDS011;69702;44.618;33.604;2024-01-27T06:17:56;12.52;;;7.45;;
80384;SDS011;69702;44.618;33.604;2024-01-27T06:20:23;9.13;;;6.47;;
80384;SDS011;69702;44.618;33.604;2024-01-27T06:22:50;8.52;;;6.70;;
80384;SDS011;69702;44.618;33.604;2024-01-27T06:25:19;6.40;;;4.40;;
80384;SDS011;69702;44.618;33.604;2024-01-27T06:27:46;6.60;;;4.32;;
80384;SDS011;69702;44.618;33.604;2024-01-27T06:30:12;9.05;;;5.55;;
80384;SDS011;69702;44.618;33.604;2024-01-27T06:32:40;8.47;;;5.40;;
80384;SDS011;69702;44.618;33.604;2024-01-27T06:35:06;8.93;;;6.70;;
80384;SDS011;69702;44.618;33.604;2024-01-27T06:37:33;10.68;;;6.05;;
80384;SDS011;69702;44.618;33.604;2024-01-27T06:39:59;9.10;;;6.80;;
80384;SDS011;69702;44.618;33.604;2024-01-27T06:42:26;9.02;;;7.70;;
80384;SDS011;69702;44.618;33.604;2024-01-27T06:44:52;8.30;;;7.27;;
80384;SDS011;69702;44.618;33.604;2024-01-27T06:47:18;8.25;;;6.18;;
80384;SDS011;69702;44.618;33.604;2024-01-27T06:49:44;9.15;;;8.25;;
80384;SDS011;69702;44.618;33.604;2024-01-27T06:52:10;8.32;;;6.60;;
80384;SDS011;69702;44.618;33.604;2024-01-27T06:54:38;7.82;;;5.85;;
80384;SDS011;69702;44.618;33.604;2024-01-27T06:57:19;6.80;;;4.60;;
80384;SDS011;69702;44.618;33.604;2024-01-27T06:59:49;7.32;;;4.55;;
80384;SDS011;69702;44.618;33.604;2024-01-27T07:02:22;8.02;;;5.60;;
80384;SDS011;69702;44.618;33.604;2024-01-27T07:04:54;7.43;;;5.30;;
80384;SDS011;69702;44.618;33.604;2024-01-27T07:07:22;8.57;;;5.90;;
80384;SDS011;69702;44.618;33.604;2024-01-27T07:09:51;8.53;;;6.10;;
80384;SDS011;69702;44.618;33.604;2024-01-27T07:12:18;8.38;;;6.00;;
80384;SDS011;69702;44.618;33.604;2024-01-27T07:14:44;8.48;;;6.13;;
80384;SDS011;69702;44.618;33.604;2024-01-27T07:17:10;7.68;;;5.65;;
80384;SDS011;69702;44.618;33.604;2024-01-27T07:19:36;6.63;;;4.45;;
80384;SDS011;69702;44.618;33.604;2024-01-27T07:22:02;5.97;;;3.90;;
80384;SDS011;69702;44.618;33.604;2024-01-27T07:24:29;5.40;;;3.55;;
80384;SDS011;69702;44.618;33.604;2024-01-27T07:26:55;5.38;;;3.47;;
80384;SDS011;69702;44.618;33.604;2024-01-27T07:29:23;7.75;;;5.22;;
80384;SDS011;69702;44.618;33.604;2024-01-27T07:31:50;6.65;;;4.60;;
80384;SDS011;69702;44.618;33.604;2024-01-27T07:34:17;6.90;;;5.63;;
80384;SDS011;69702;44.618;33.604;2024-01-27T07:36:44;7.38;;;6.13;;
80384;SDS011;69702;44.618;33.604;2024-01-27T07:39:10;5.47;;;3.70;;
80384;SDS011;69702;44.618;33.604;2024-01-27T07:41:36;6.15;;;4.10;;
80384;SDS011;69702;44.618;33.604;2024-01-27T07:44:08;6.22;;;4.32;;
80384;SDS011;69702;44.618;33.604;2024-01-27T07:46:37;6.18;;;3.75;;
80384;SDS011;69702;44.618;33.604;2024-01-27T07:49:03;5.55;;;3.83;;
80384;SDS011;69702;44.618;33.604;2024-01-27T07:51:30;7.32;;;4.63;;
80384;SDS011;69702;44.618;33.604;2024-01-27T07:53:56;7.13;;;4.97;;
80384;SDS011;69702;44.618;33.604;2024-01-27T07:56:22;5.93;;;4.30;;
80384;SDS011;69702;44.618;33.604;2024-01-27T07:58:48;6.63;;;5.35;;
80384;SDS011;69702;44.618;33.604;2024-01-27T08:01:15;6.68;;;4.72;;
80384;SDS011;69702;44.618;33.604;2024-01-27T08:03:41;6.10;;;3.85;;
80384;SDS011;69702;44.618;33.604;2024-01-27T08:06:14;8.57;;;4.90;;
80384;SDS011;69702;44.618;33.604;2024-01-27T08:08:41;6.70;;;4.40;;
80384;SDS011;69702;44.618;33.604;2024-01-27T08:11:07;6.40;;;4.50;;
80384;SDS011;69702;44.618;33.604;2024-01-27T08:13:33;6.40;;;4.72;;
80384;SDS011;69702;44.618;33.604;2024-01-27T08:15:59;6.15;;;4.30;;
80384;SDS011;69702;44.618;33.604;2024-01-27T08:18:25;6.30;;;4.10;;
80384;SDS011;69702;44.618;33.604;2024-01-27T08:20:51;6.73;;;3.63;;
80384;SDS011;69702;44.618;33.604;2024-01-27T08:23:18;7.43;;;4.00;;
80384;SDS011;69702;44.618;33.604;2024-01-27T08:25:44;6.53;;;3.95;;
80384;SDS011;69702;44.618;33.604;2024-01-27T08:28:12;7.03;;;4.40;;
80384;SDS011;69702;44.618;33.604;2024-01-27T08:30:38;6.47;;;4.43;;
80384;SDS011;69702;44.618;33.604;2024-01-27T08:33:04;7.50;;;5.17;;
80384;SDS011;69702;44.618;33.604;2024-01-27T08:35:31;6.80;;;4.20;;
80384;SDS011;69702;44.618;33.604;2024-01-27T08:37:57;6.80;;;4.80;;
80384;SDS011;69702;44.618;33.604;2024-01-27T08:40:23;7.35;;;4.70;;
80384;SDS011;69702;44.618;33.604;2024-01-27T08:42:49;7.97;;;5.33;;
80384;SDS011;69702;44.618;33.604;2024-01-27T08:45:15;7.20;;;5.10;;
80384;SDS011;69702;44.618;33.604;2024-01-27T08:47:41;7.13;;;4.60;;
80384;SDS011;69702;44.618;33.604;2024-01-27T08:50:08;6.60;;;4.50;;
80384;SDS011;69702;44.618;33.604;2024-01-27T08:52:35;7.28;;;4.70;;
80384;SDS011;69702;44.618;33.604;2024-01-27T08:55:01;26.90;;;18.13;;
80384;SDS011;69702;44.618;33.604;2024-01-27T08:57:27;6.93;;;4.70;;
80384;SDS011;69702;44.618;33.604;2024-01-27T08:59:53;7.70;;;5.38;;
80384;SDS011;69702;44.618;33.604;2024-01-27T09:02:19;9.68;;;6.95;;
80384;SDS011;69702;44.618;33.604;2024-01-27T09:04:45;7.93;;;6.10;;
80384;SDS011;69702;44.618;33.604;2024-01-27T09:07:12;8.02;;;6.93;;
80384;SDS011;69702;44.618;33.604;2024-01-27T09:09:38;8.13;;;6.07;;
80384;SDS011;69702;44.618;33.604;2024-01-27T09:12:04;7.75;;;6.30;;
80384;SDS011;69702;44.618;33.604;2024-01-27T09:14:30;7.95;;;6.82;;
80384;SDS011;69702;44.618;33.604;2024-01-27T09:16:59;8.60;;;7.70;;
80384;SDS011;69702;44.618;33.604;2024-01-27T09:19:26;7.10;;;5.50;;
80384;SDS011;69702;44.618;33.604;2024-01-27T09:21:52;8.13;;;7.43;;
80384;SDS011;69702;44.618;33.604;2024-01-27T09:24:18;6.72;;;6.03;;
80384;SDS011;69702;44.618;33.604;2024-01-27T09:26:44;5.82;;;5.22;;
80384;SDS011;69702;44.618;33.604;2024-01-27T09:29:10;6.00;;;4.30;;
80384;SDS011;69702;44.618;33.604;2024-01-27T09:31:36;6.63;;;6.03;;
80384;SDS011;69702;44.618;33.604;2024-01-27T09:34:02;5.55;;;4.28;;
80384;SDS011;69702;44.618;33.604;2024-01-27T09:36:28;7.53;;;6.45;;
80384;SDS011;69702;44.618;33.604;2024-01-27T09:38:54;5.72;;;4.90;;
80384;SDS011;69702;44.618;33.604;2024-01-27T09:41:20;5.43;;;4.43;;
80384;SDS011;69702;44.618;33.604;2024-01-27T09:43:47;5.22;;;3.95;;
80384;SDS011;69702;44.618;33.604;2024-01-27T09:46:13;6.20;;;4.10;;
80384;SDS011;69702;44.618;33.604;2024-01-27T09:48:42;5.72;;;4.13;;
80384;SDS011;69702;44.618;33.604;2024-01-27T09:51:09;10.07;;;8.30;;
80384;SDS011;69702;44.618;33.604;2024-01-27T09:53:36;6.43;;;5.47;;
80384;SDS011;69702;44.618;33.604;2024-01-27T09:56:12;6.70;;;5.75;;
80384;SDS011;69702;44.618;33.604;2024-01-27T10:05:21;6.18;;;4.50;;
80384;SDS011;69702;44.618;33.604;2024-01-27T10:09:03;6.67;;;3.90;;
80384;SDS011;69702;44.618;33.604;2024-01-27T10:11:36;5.88;;;4.00;;
80384;SDS011;69702;44.618;33.604;2024-01-27T10:14:02;5.53;;;3.83;;
80384;SDS011;69702;44.618;33.604;2024-01-27T10:16:28;6.18;;;3.97;;
80384;SDS011;69702;44.618;33.604;2024-01-27T10:19:15;7.18;;;5.55;;
80384;SDS011;69702;44.618;33.604;2024-01-27T10:22:05;6.40;;;4.77;;
80384;SDS011;69702;44.618;33.604;2024-01-27T10:25:00;5.88;;;4.18;;
80384;SDS011;69702;44.618;33.604;2024-01-27T10:27:55;6.10;;;3.90;;
80384;SDS011;69702;44.618;33.604;2024-01-27T10:30:32;6.18;;;4.10;;
80384;SDS011;69702;44.618;33.604;2024-01-27T10:32:58;10.45;;;6.72;;
80384;SDS011;69702;44.618;33.604;2024-01-27T10:35:25;7.37;;;4.43;;
80384;SDS011;69702;44.618;33.604;2024-01-27T10:37:52;6.93;;;4.82;;
80384;SDS011;69702;44.618;33.604;2024-01-27T10:40:20;9.27;;;5.25;;
80384;SDS011;69702;44.618;33.604;2024-01-27T10:42:46;8.40;;;5.32;;
80384;SDS011;69702;44.618;33.604;2024-01-27T10:45:13;7.57;;;4.93;;
80384;SDS011;69702;44.618;33.604;2024-01-27T10:47:40;7.33;;;4.80;;
80384;SDS011;69702;44.618;33.604;2024-01-27T10:50:09;7.82;;;4.88;;
80384;SDS011;69702;44.618;33.604;2024-01-27T10:52:38;6.93;;;4.40;;
80384;SDS011;69702;44.618;33.604;2024-01-27T10:55:07;7.72;;;5.20;;
80384;SDS011;69702;44.618;33.604;2024-01-27T10:57:33;7.65;;;5.05;;
80384;SDS011;69702;44.618;33.604;2024-01-27T11:00:00;6.27;;;4.37;;
80384;SDS011;69702;44.618;33.604;2024-01-27T11:02:31;7.10;;;4.38;;
80384;SDS011;69702;44.618;33.604;2024-01-27T11:04:59;6.78;;;4.82;;
80384;SDS011;69702;44.618;33.604;2024-01-27T11:07:26;7.07;;;5.00;;
80384;SDS011;69702;44.618;33.604;2024-01-27T11:09:52;8.75;;;5.63;;
80384;SDS011;69702;44.618;33.604;2024-01-27T11:12:19;6.70;;;4.43;;
80384;SDS011;69702;44.618;33.604;2024-01-27T11:14:46;6.90;;;4.93;;
80384;SDS011;69702;44.618;33.604;2024-01-27T11:17:17;7.80;;;5.18;;
80384;SDS011;69702;44.618;33.604;2024-01-27T11:19:46;6.72;;;4.80;;
80384;SDS011;69702;44.618;33.604;2024-01-27T11:22:26;8.18;;;5.88;;
80384;SDS011;69702;44.618;33.604;2024-01-27T11:25:38;7.07;;;5.57;;
80384;SDS011;69702;44.618;33.604;2024-01-27T11:27:45;6.07;;;4.03;;
80384;SDS011;69702;44.618;33.604;2024-01-27T11:30:33;6.78;;;4.93;;
80384;SDS011;69702;44.618;33.604;2024-01-27T11:33:01;6.30;;;3.97;;
80384;SDS011;69702;44.618;33.604;2024-01-27T11:35:28;7.07;;;4.75;;
80384;SDS011;69702;44.618;33.604;2024-01-27T11:37:55;7.00;;;4.83;;
80384;SDS011;69702;44.618;33.604;2024-01-27T11:40:21;6.70;;;4.80;;
80384;SDS011;69702;44.618;33.604;2024-01-27T11:42:56;6.38;;;4.57;;
80384;SDS011;69702;44.618;33.604;2024-01-27T11:45:23;5.80;;;4.25;;
80384;SDS011;69702;44.618;33.604;2024-01-27T11:47:49;7.18;;;6.28;;
80384;SDS011;69702;44.618;33.604;2024-01-27T11:50:19;5.73;;;4.27;;
80384;SDS011;69702;44.618;33.604;2024-01-27T11:52:46;7.57;;;6.20;;
80384;SDS011;69702;44.618;33.604;2024-01-27T11:55:12;7.18;;;6.47;;
80384;SDS011;69702;44.618;33.604;2024-01-27T11:57:44;5.80;;;4.00;;
80384;SDS011;69702;44.618;33.604;2024-01-27T12:00:22;6.68;;;4.95;;
80384;SDS011;69702;44.618;33.604;2024-01-27T12:02:51;7.37;;;6.43;;
80384;SDS011;69702;44.618;33.604;2024-01-27T12:05:17;6.47;;;4.78;;
80384;SDS011;69702;44.618;33.604;2024-01-27T12:07:44;7.32;;;5.55;;
80384;SDS011;69702;44.618;33.604;2024-01-27T12:10:10;6.72;;;5.30;;
80384;SDS011;69702;44.618;33.604;2024-01-27T12:12:36;9.27;;;8.15;;
80384;SDS011;69702;44.618;33.604;2024-01-27T12:15:02;8.20;;;6.83;;
80384;SDS011;69702;44.618;33.604;2024-01-27T12:17:29;5.75;;;4.03;;
80384;SDS011;69702;44.618;33.604;2024-01-27T12:19:56;6.32;;;4.35;;
80384;SDS011;69702;44.618;33.604;2024-01-27T12:22:26;6.82;;;6.13;;
80384;SDS011;69702;44.618;33.604;2024-01-27T12:24:53;6.78;;;6.07;;
80384;SDS011;69702;44.618;33.604;2024-01-27T12:27:21;6.00;;;4.13;;
80384;SDS011;69702;44.618;33.604;2024-01-27T12:29:48;6.10;;;4.28;;
80384;SDS011;69702;44.618;33.604;2024-01-27T12:32:15;7.22;;;5.10;;
80384;SDS011;69702;44.618;33.604;2024-01-27T12:34:42;5.70;;;4.40;;
80384;SDS011;69702;44.618;33.604;2024-01-27T12:37:09;6.43;;;5.53;;
80384;SDS011;69702;44.618;33.604;2024-01-27T12:39:37;7.07;;;6.37;;
80384;SDS011;69702;44.618;33.604;2024-01-27T12:42:03;6.15;;;5.38;;
80384;SDS011;69702;44.618;33.604;2024-01-27T12:44:30;6.60;;;4.65;;
80384;SDS011;69702;44.618;33.604;2024-01-27T12:46:56;7.20;;;5.78;;
80384;SDS011;69702;44.618;33.604;2024-01-27T12:49:22;6.55;;;5.95;;
80384;SDS011;69702;44.618;33.604;2024-01-27T12:51:49;7.63;;;5.40;;
80384;SDS011;69702;44.618;33.604;2024-01-27T12:54:15;9.75;;;8.48;;
80384;SDS011;69702;44.618;33.604;2024-01-27T12:56:41;10.05;;;8.30;;
80384;SDS011;69702;44.618;33.604;2024-01-27T12:59:08;6.40;;;4.97;;
80384;SDS011;69702;44.618;33.604;2024-01-27T13:01:34;5.43;;;3.80;;
80384;SDS011;69702;44.618;33.604;2024-01-27T13:04:00;5.50;;;3.80;;
80384;SDS011;69702;44.618;33.604;2024-01-27T13:06:26;5.57;;;3.70;;
80384;SDS011;69702;44.618;33.604;2024-01-27T13:08:52;9.55;;;6.68;;
80384;SDS011;69702;44.618;33.604;2024-01-27T13:11:20;7.15;;;4.70;;
80384;SDS011;69702;44.618;33.604;2024-01-27T13:13:46;6.85;;;4.35;;
80384;SDS011;69702;44.618;33.604;2024-01-27T13:16:12;6.20;;;4.00;;
80384;SDS011;69702;44.618;33.604;2024-01-27T13:18:38;6.53;;;4.30;;
80384;SDS011;69702;44.618;33.604;2024-01-27T13:21:04;5.63;;;3.90;;
80384;SDS011;69702;44.618;33.604;2024-01-27T13:23:32;6.00;;;3.88;;
80384;SDS011;69702;44.618;33.604;2024-01-27T13:25:58;5.57;;;3.72;;
80384;SDS011;69702;44.618;33.604;2024-01-27T13:28:24;5.77;;;3.70;;
80384;SDS011;69702;44.618;33.604;2024-01-27T13:30:50;5.70;;;3.80;;
80384;SDS011;69702;44.618;33.604;2024-01-27T13:33:17;6.53;;;4.55;;
80384;SDS011;69702;44.618;33.604;2024-01-27T13:35:43;6.47;;;3.90;;
80384;SDS011;69702;44.618;33.604;2024-01-27T13:38:12;6.55;;;4.65;;
80384;SDS011;69702;44.618;33.604;2024-01-27T13:40:39;6.57;;;4.40;;
80384;SDS011;69702;44.618;33.604;2024-01-27T13:43:05;6.95;;;5.32;;
80384;SDS011;69702;44.618;33.604;2024-01-27T13:45:31;7.70;;;4.30;;
80384;SDS011;69702;44.618;33.604;2024-01-27T13:47:57;6.65;;;4.20;;
80384;SDS011;69702;44.618;33.604;2024-01-27T13:50:24;6.65;;;4.97;;
80384;SDS011;69702;44.618;33.604;2024-01-27T13:52:55;6.57;;;4.27;;
80384;SDS011;69702;44.618;33.604;2024-01-27T13:55:22;8.30;;;4.07;;
80384;SDS011;69702;44.618;33.604;2024-01-27T13:57:48;7.05;;;5.07;;
80384;SDS011;69702;44.618;33.604;2024-01-27T14:00:14;6.65;;;4.22;;
80384;SDS011;69702;44.618;33.604;2024-01-27T14:02:41;8.10;;;5.47;;
80384;SDS011;69702;44.618;33.604;2024-01-27T14:05:08;6.70;;;4.23;;
80384;SDS011;69702;44.618;33.604;2024-01-27T14:07:35;6.97;;;4.43;;
80384;SDS011;69702;44.618;33.604;2024-01-27T14:10:01;7.63;;;5.35;;
80384;SDS011;69702;44.618;33.604;2024-01-27T14:12:30;7.35;;;4.55;;
80384;SDS011;69702;44.618;33.604;2024-01-27T14:15:04;7.85;;;5.47;;
80384;SDS011;69702;44.618;33.604;2024-01-27T14:17:34;8.73;;;5.17;;
80384;SDS011;69702;44.618;33.604;2024-01-27T14:20:02;8.35;;;5.00;;
80384;SDS011;69702;44.618;33.604;2024-01-27T14:22:30;7.60;;;4.78;;
80384;SDS011;69702;44.618;33.604;2024-01-27T14:24:56;9.15;;;5.95;;
80384;SDS011;69702;44.618;33.604;2024-01-27T14:27:23;12.13;;;7.68;;
80384;SDS011;69702;44.618;33.604;2024-01-27T14:29:52;7.97;;;4.70;;
80384;SDS011;69702;44.618;33.604;2024-01-27T14:32:20;8.02;;;4.88;;
80384;SDS011;69702;44.618;33.604;2024-01-27T14:34:47;8.05;;;5.40;;
80384;SDS011;69702;44.618;33.604;2024-01-27T14:37:13;8.32;;;5.63;;
80384;SDS011;69702;44.618;33.604;2024-01-27T14:39:45;8.05;;;5.32;;